createdAt,value
2023-05-11T00:01:22.005Z,99219.51
2023-05-11T00:06:26.590Z,99222.16
2023-05-11T00:11:30.162Z,99222.06
2023-05-11T00:16:33.777Z,99228.02
2023-05-11T00:21:37.650Z,99221.75
2023-05-11T00:26:41.263Z,99220.28
2023-05-11T00:31:48.513Z,99218.03
2023-05-11T00:36:52.963Z,99217.33
2023-05-11T00:41:56.807Z,99215.12
2023-05-11T00:47:09.107Z,99213.16
2023-05-11T00:52:14.536Z,99207.29
2023-05-11T00:57:19.074Z,99208.27
2023-05-11T01:02:23.036Z,99209.94
2023-05-11T01:07:43.712Z,99208.44
2023-05-11T01:13:21.460Z,99213.31
2023-05-11T01:18:54.437Z,99214.60
2023-05-11T01:24:25.168Z,99217.33
2023-05-11T01:29:57.350Z,99213.94
2023-05-11T01:35:07.600Z,99213.50
2023-05-11T01:40:18.268Z,99211.27
2023-05-11T01:45:23.529Z,99212.21
2023-05-11T01:50:27.189Z,99217.41
2023-05-11T01:55:32.923Z,99213.98
2023-05-11T02:00:36.821Z,99217.49
2023-05-11T02:05:42.069Z,99215.62
2023-05-11T02:10:51.298Z,99216.61
2023-05-11T02:16:08.979Z,99221.70
2023-05-11T02:21:16.536Z,99224.98
2023-05-11T02:26:20.749Z,99225.09
2023-05-11T02:31:33.428Z,99226.30
2023-05-11T02:36:39.922Z,99225.77
2023-05-11T02:41:46.873Z,99225.55
2023-05-11T02:46:53.023Z,99230.48
2023-05-11T02:51:59.543Z,99229.58
2023-05-11T02:57:04.577Z,99230.98
2023-05-11T03:02:09.382Z,99231.48
2023-05-11T03:07:13.912Z,99230.33
2023-05-11T03:12:17.584Z,99232.52
2023-05-11T03:17:22.756Z,99237.36
2023-05-11T03:22:28.823Z,99237.04
2023-05-11T03:27:34.308Z,99237.02
2023-05-11T03:32:38.776Z,99239.85
2023-05-11T03:37:44.817Z,99245.69
2023-05-11T03:42:51.196Z,99244.42
2023-05-11T03:47:56.885Z,99247.08
2023-05-11T03:53:01.256Z,99248.89
2023-05-11T03:58:11.295Z,99245.86
2023-05-11T04:03:14.978Z,99250.58
2023-05-11T04:08:18.742Z,99248.92
2023-05-11T04:13:24.759Z,99251.80
2023-05-11T04:18:29.795Z,99253.49
2023-05-11T04:23:33.576Z,99258.64
2023-05-11T04:28:37.437Z,99259.98
2023-05-11T04:33:41.171Z,99255.02
2023-05-11T04:38:44.876Z,99255.64
2023-05-11T04:43:49.273Z,99257.27
2023-05-11T04:48:56.830Z,99255.59
2023-05-11T04:54:00.548Z,99255.29
2023-05-11T04:59:05.435Z,99258.00
2023-05-11T05:04:10.616Z,99263.45
2023-05-11T05:09:15.112Z,99262.59
2023-05-11T05:20:44.472Z,99266.51
2023-05-11T05:25:48.538Z,99268.98
2023-05-11T05:30:52.494Z,99265.05
2023-05-11T05:35:59.129Z,99264.71
2023-05-11T05:41:02.953Z,99264.08
2023-05-11T05:46:10.669Z,99262.73
2023-05-11T05:51:14.646Z,99265.27
2023-05-11T05:56:45.820Z,99269.41
2023-05-11T06:01:55.709Z,99265.54
2023-05-11T06:07:03.554Z,99268.75
2023-05-11T06:12:10.256Z,99271.02
2023-05-11T06:17:19.167Z,99271.27
2023-05-11T06:22:23.268Z,99277.02
2023-05-11T06:27:27.997Z,99281.33
2023-05-11T06:32:34.662Z,99281.48
2023-05-11T06:37:39.424Z,99279.52
2023-05-11T06:42:47.457Z,99275.45
2023-05-11T06:47:51.606Z,99277.98
2023-05-11T06:53:11.826Z,99278.56
2023-05-11T06:58:17.289Z,99275.92
2023-05-11T07:03:21.296Z,99271.34
2023-05-11T07:08:26.360Z,99263.98
2023-05-11T07:13:32.569Z,99257.36
2023-05-11T07:18:58.259Z,99253.61
2023-05-11T07:24:03.361Z,99254.42
2023-05-11T07:29:07.338Z,99249.48
2023-05-11T07:34:11.098Z,99251.77
2023-05-11T07:39:17.589Z,99244.55
2023-05-11T07:44:29.525Z,99249.48
2023-05-11T07:49:43.025Z,99248.33
2023-05-11T07:54:48.635Z,99254.64
2023-05-11T07:59:53.826Z,99252.39
2023-05-11T08:04:58.157Z,99248.11
2023-05-11T08:10:01.681Z,99244.18
2023-05-11T08:15:06.390Z,99248.28
2023-05-11T08:20:11.444Z,99244.10
2023-05-11T08:25:16.724Z,99237.38
2023-05-11T08:30:20.559Z,99236.89
2023-05-11T08:35:27.989Z,99231.67
2023-05-11T08:40:31.901Z,99231.44
2023-05-11T08:45:38.272Z,99225.29
2023-05-11T08:50:43.711Z,99226.88
2023-05-11T08:55:48.574Z,99220.46
2023-05-11T09:00:52.584Z,99214.83
2023-05-11T09:05:59.049Z,99210.45
2023-05-11T09:11:04.250Z,99210.02
2023-05-11T09:16:19.549Z,99209.27
2023-05-11T09:21:33.750Z,99207.88
2023-05-11T09:26:37.359Z,99200.00
2023-05-11T09:31:42.332Z,99196.02
2023-05-11T09:36:49.599Z,99200.79
2023-05-11T09:42:21.512Z,99195.20
2023-05-11T09:47:25.454Z,99187.96
2023-05-11T09:52:29.060Z,99182.13
2023-05-11T09:57:32.526Z,99178.42
2023-05-11T10:02:36.085Z,99170.95
2023-05-11T10:07:39.750Z,99168.07
2023-05-11T10:12:42.771Z,99166.90
2023-05-11T10:17:46.360Z,99152.62
2023-05-11T10:22:55.393Z,99141.50
2023-05-11T10:27:58.612Z,99143.73
2023-05-11T10:33:02.122Z,99137.34
2023-05-11T10:38:06.827Z,99145.06
2023-05-11T10:43:37.166Z,99139.14
2023-05-11T10:48:43.069Z,99136.32
2023-05-11T10:54:10.399Z,99133.09
2023-05-11T10:59:38.710Z,99125.39
2023-05-11T11:04:49.807Z,99116.66
2023-05-11T11:15:00.303Z,99103.14
2023-05-11T11:20:08.774Z,99101.95
2023-05-11T11:25:13.168Z,99101.39
2023-05-11T11:30:20.568Z,99101.31
2023-05-11T11:35:42.028Z,99098.41
2023-05-11T11:40:51.246Z,99097.99
2023-05-11T11:46:02.820Z,99101.96
2023-05-11T11:51:13.912Z,99095.82
2023-05-11T11:56:17.124Z,99094.35
2023-05-11T12:01:22.515Z,99089.26
2023-05-11T12:06:32.578Z,99090.94
2023-05-11T12:11:35.731Z,99088.61
2023-05-11T12:16:38.774Z,99088.61
2023-05-11T12:21:45.212Z,99082.73
2023-05-11T12:26:48.240Z,99073.91
2023-05-11T12:31:51.257Z,99075.14
2023-05-11T12:36:54.586Z,99063.66
2023-05-11T12:41:57.955Z,99059.60
2023-05-11T12:47:01.160Z,99056.98
2023-05-11T12:52:09.225Z,99059.17
2023-05-11T12:57:29.374Z,99065.36
2023-05-11T13:02:32.705Z,99059.32
2023-05-11T13:07:35.897Z,99049.14
2023-05-11T13:12:50.576Z,99044.39
2023-05-11T13:17:59.020Z,99038.27
2023-05-11T13:23:22.468Z,99034.92
2023-05-11T13:28:25.693Z,99026.75
2023-05-11T13:33:29.025Z,99023.92
2023-05-11T13:38:32.282Z,99021.77
2023-05-11T13:43:35.368Z,99028.59
2023-05-11T13:48:38.510Z,99022.45
2023-05-11T13:53:42.232Z,99014.60
2023-05-11T13:58:45.870Z,99017.20
2023-05-11T14:03:55.040Z,99011.40
2023-05-11T14:08:58.908Z,99010.07
2023-05-11T14:14:02.046Z,99003.61
2023-05-11T14:23:13.193Z,99014.54
2023-05-11T14:28:18.493Z,99003.88
2023-05-11T14:33:22.409Z,99001.98
2023-05-11T14:38:26.084Z,98992.22
2023-05-11T14:43:30.218Z,98999.30
2023-05-11T14:48:34.396Z,98992.84
2023-05-11T14:53:38.098Z,98994.05
2023-05-11T14:58:41.927Z,98996.21
2023-05-11T15:03:45.426Z,98995.55
2023-05-11T15:08:50.864Z,98999.89
2023-05-11T15:13:54.389Z,98998.27
2023-05-11T15:25:22.936Z,99001.83
2023-05-11T15:30:26.126Z,98995.91
2023-05-11T15:35:29.762Z,98998.28
2023-05-11T15:40:33.563Z,98997.09
2023-05-11T15:45:37.309Z,98995.98
2023-05-11T15:50:41.472Z,99001.36
2023-05-11T15:55:58.152Z,99003.88
2023-05-11T16:01:02.191Z,99005.47
2023-05-11T16:06:07.011Z,99006.95
2023-05-11T16:11:10.455Z,99009.88
2023-05-11T16:16:15.071Z,99004.61
2023-05-11T16:21:18.508Z,99011.68
2023-05-11T16:26:22.051Z,99016.36
2023-05-11T16:31:26.011Z,99023.13
2023-05-11T16:36:32.675Z,99020.86
2023-05-11T16:41:36.173Z,99021.51
2023-05-11T16:46:39.549Z,99024.48
2023-05-11T16:51:44.824Z,99023.16
2023-05-11T16:56:52.261Z,99025.81
2023-05-11T17:01:55.535Z,99030.83
2023-05-11T17:06:58.839Z,99030.98
2023-05-11T17:12:57.737Z,99034.38
2023-05-11T17:18:01.079Z,99038.49
2023-05-11T17:23:04.280Z,99044.09
2023-05-11T17:28:35.933Z,99046.70
2023-05-11T17:33:46.815Z,99050.33
2023-05-11T17:38:53.449Z,99049.05
2023-05-11T17:43:56.728Z,99059.91
2023-05-11T17:49:00.038Z,99061.44
2023-05-11T17:54:03.988Z,99064.36
2023-05-11T17:59:07.291Z,99069.57
2023-05-11T18:04:10.439Z,99074.65
2023-05-11T18:09:18.937Z,99077.04
2023-05-11T18:14:21.929Z,99086.55
2023-05-11T18:19:26.341Z,99090.48
2023-05-11T18:24:29.418Z,99097.27
2023-05-11T18:29:32.516Z,99103.36
2023-05-11T18:34:38.121Z,99111.49
2023-05-11T18:39:41.364Z,99120.02
2023-05-11T18:44:44.391Z,99124.98
2023-05-11T18:49:49.131Z,99129.14
2023-05-11T18:54:52.282Z,99133.83
2023-05-11T18:59:55.553Z,99141.52
2023-05-11T19:04:59.020Z,99144.98
2023-05-11T19:10:02.459Z,99151.81
2023-05-11T19:15:06.637Z,99157.76
2023-05-11T19:20:10.904Z,99159.13
2023-05-11T19:25:14.971Z,99163.63
2023-05-11T19:30:18.060Z,99167.34
2023-05-11T19:35:21.551Z,99172.78
2023-05-11T19:45:34.200Z,99176.94
2023-05-11T19:50:37.094Z,99182.22
2023-05-11T19:55:40.988Z,99188.27
2023-05-11T20:00:44.378Z,99188.77
2023-05-11T20:05:47.574Z,99190.34
2023-05-11T20:10:50.762Z,99191.75
2023-05-11T20:15:53.730Z,99195.14
2023-05-11T20:20:56.697Z,99201.20
2023-05-11T20:25:59.634Z,99202.98
2023-05-11T20:31:03.018Z,99201.88
2023-05-11T20:36:06.154Z,99198.64
2023-05-11T20:41:09.183Z,99196.34
2023-05-11T20:46:12.328Z,99193.35
2023-05-11T20:51:15.492Z,99197.20
2023-05-11T20:56:18.409Z,99195.14
2023-05-11T21:01:21.694Z,99200.45
2023-05-11T21:06:24.783Z,99197.83
2023-05-11T21:11:29.040Z,99198.80
2023-05-11T21:16:32.582Z,99199.61
2023-05-11T21:21:35.901Z,99204.59
2023-05-11T21:26:38.857Z,99202.61
2023-05-11T21:31:41.763Z,99203.46
2023-05-11T21:36:45.724Z,99210.20
2023-05-11T21:41:48.792Z,99211.36
2023-05-11T21:46:51.897Z,99218.77
2023-05-11T21:51:54.980Z,99214.73
2023-05-11T21:56:57.986Z,99212.73
2023-05-11T22:02:01.660Z,99214.00
2023-05-11T22:07:05.233Z,99214.77
2023-05-11T22:12:08.877Z,99215.89
2023-05-11T22:17:11.932Z,99217.45
2023-05-11T22:22:14.959Z,99219.09
2023-05-11T22:27:17.982Z,99224.02
2023-05-11T22:32:21.870Z,99223.14
2023-05-11T22:37:25.074Z,99224.59
2023-05-11T22:42:30.906Z,99231.27
2023-05-11T22:47:33.923Z,99228.38
2023-05-11T22:52:37.342Z,99227.62
2023-05-11T22:57:40.297Z,99229.16
2023-05-11T23:02:43.690Z,99230.80
2023-05-11T23:07:46.687Z,99232.98
2023-05-11T23:12:49.807Z,99229.49
2023-05-11T23:17:52.927Z,99226.77
2023-05-11T23:22:55.920Z,99220.74
2023-05-11T23:27:58.871Z,99223.08
2023-05-11T23:33:02.125Z,99223.95
2023-05-11T23:38:05.095Z,99226.84
2023-05-11T23:43:08.825Z,99224.36
2023-05-11T23:48:11.839Z,99226.64
2023-05-11T23:53:14.869Z,99222.67
2023-05-11T23:58:17.787Z,99230.27
